Time;durP1;ratioP1;P1;durP2;ratioP2;P2;SDS_P1;SDS_P2;PMS_P1;PMS_P2;Temp;Humidity;BMP_temperature;BMP_pressure;BME280_temperature;BME280_humidity;BME280_pressure;Samples;Min_cycle;Max_cycle;Signal;HPM_P1;HPM_P2
2022/01/20 00:01:59;;;;;;;;;93.50;74.00;;;;;2.95;54.59;100009.16;5034279;28;9739;-78
2022/01/20 00:04:36;;;;;;;;;96.00;71.25;;;;;2.90;54.84;100011.53;5050925;28;9951;-76
2022/01/20 00:26:44;;;;;;;;;97.25;77.50;;;;;2.75;55.41;100010.97;5048445;28;10009;-75
2022/01/20 00:29:22;;;;;;;;;88.67;68.00;;;;;2.72;54.85;100013.41;5065445;28;10670;-74
2022/01/20 00:32:08;;;;;;;;;84.75;66.75;;;;;2.70;54.97;100004.75;5065377;28;9374;-76
2022/01/20 00:37:26;;;;;;;;;88.00;68.33;;;;;2.67;55.05;100010.66;5034280;28;9434;-74
2022/01/20 00:39:56;;;;;;;;;90.00;64.33;;;;;2.64;54.99;100007.97;5030674;28;9308;-76
2022/01/20 00:42:25;;;;;;;;;89.00;69.00;;;;;2.62;55.00;99996.72;5048572;28;9388;-75
2022/01/20 00:44:54;;;;;;;;;80.50;64.00;;;;;2.62;54.77;99999.31;5048245;28;9441;-76
2022/01/20 00:47:26;;;;;;;;;76.25;59.75;;;;;2.59;54.14;99994.06;5031739;28;8922;-75
2022/01/20 00:49:55;;;;;;;;;74.50;58.25;;;;;2.59;54.00;99993.16;4999766;28;8857;-76
2022/01/20 00:52:25;;;;;;;;;66.50;52.50;;;;;2.57;53.32;99993.13;5016038;28;8852;-75
2022/01/20 00:54:53;;;;;;;;;56.50;46.75;;;;;2.59;52.43;99988.91;5048145;28;8857;-75
2022/01/20 00:57:22;;;;;;;;;65.25;50.50;;;;;2.56;52.52;99991.34;5031973;28;8837;-75
2022/01/20 00:59:51;;;;;;;;;52.00;45.75;;;;;2.54;52.39;99990.41;5064562;28;8873;-75
2022/01/20 01:02:22;;;;;;;;;56.25;49.00;;;;;2.59;51.91;99981.19;5048239;28;8856;-77
2022/01/20 01:04:52;;;;;;;;;67.50;54.75;;;;;2.53;52.10;99979.25;5072410;28;8840;-76
2022/01/20 01:10:19;;;;;;;;;54.25;47.50;;;;;2.51;51.82;99962.88;5030257;28;8862;-76
2022/01/20 01:12:51;;;;;;;;;61.75;50.50;;;;;2.36;52.04;99959.69;5029955;28;8858;-75
2022/01/20 01:15:24;;;;;;;;;50.25;45.75;;;;;2.31;52.00;99950.91;5028795;28;8870;-76
2022/01/20 01:23:26;;;;;;;;;59.75;50.00;;;;;2.70;50.62;99951.56;5011654;28;8855;-75
2022/01/20 01:25:57;;;;;;;;;60.25;50.00;;;;;2.74;50.62;99952.53;5029491;28;8831;-75
2022/01/20 01:28:29;;;;;;;;;59.00;49.75;;;;;2.83;50.10;99952.00;5030045;28;8855;-75
2022/01/20 01:33:54;;;;;;;;;53.75;45.50;;;;;2.83;50.78;99946.88;4947832;28;8902;-74
2022/01/20 01:36:29;;;;;;;;;51.50;47.50;;;;;2.65;50.00;99952.22;4932293;28;8946;-75
2022/01/20 01:39:00;;;;;;;;;53.75;44.50;;;;;2.52;50.70;99936.28;4932338;28;8871;-76
2022/01/20 01:41:35;;;;;;;;;51.75;46.00;;;;;2.36;50.71;99939.09;4932226;28;8898;-75
2022/01/20 01:44:07;;;;;;;;;16.50;12.00;;;;;2.34;50.88;99940.72;4932080;28;8918;-73
2022/01/20 01:46:39;;;;;;;;;39.75;37.75;;;;;2.39;50.79;99933.19;4910864;28;8864;-75
2022/01/20 01:49:08;;;;;;;;;31.75;29.75;;;;;2.45;50.52;99924.00;4932093;28;8871;-75
2022/01/20 01:51:38;;;;;;;;;51.25;44.75;;;;;2.46;50.26;99927.47;4916042;28;8925;-79
2022/01/20 01:54:06;;;;;;;;;50.75;45.25;;;;;2.44;50.60;99923.94;4948001;28;8889;-75
2022/01/20 01:56:36;;;;;;;;;60.00;48.75;;;;;2.51;50.52;99920.78;4932027;28;8879;-74
2022/01/20 01:59:08;;;;;;;;;45.00;40.00;;;;;2.56;50.27;99914.13;4931806;28;8862;-76
2022/01/20 02:02:05;;;;;;;;;46.75;41.25;;;;;2.52;50.06;99928.56;4936570;28;8864;-76
2022/01/20 02:04:37;;;;;;;;;49.25;40.00;;;;;2.72;49.71;99920.72;4950633;28;8914;-75
2022/01/20 02:07:54;;;;;;;;;45.00;38.25;;;;;2.74;50.12;99921.63;4950752;28;8895;-74
2022/01/20 02:18:49;;;;;;;;;44.75;40.50;;;;;2.61;49.70;99911.72;4986222;28;8845;-76
2022/01/20 02:21:54;;;;;;;;;35.50;34.50;;;;;2.58;49.56;99915.06;4928124;29;8848;-75
2022/01/20 02:24:26;;;;;;;;;40.00;38.75;;;;;2.76;49.49;99908.81;4912179;29;8868;-74
2022/01/20 02:26:55;;;;;;;;;39.75;37.00;;;;;2.74;49.16;99911.34;4896644;29;9615;-77
2022/01/20 02:29:34;;;;;;;;;51.50;43.25;;;;;2.68;48.83;99906.84;4911907;29;8864;-74
2022/01/20 02:32:04;;;;;;;;;35.25;31.25;;;;;2.53;49.29;99911.41;4889296;29;8970;-75
2022/01/20 02:34:33;;;;;;;;;44.25;38.75;;;;;2.45;49.38;99892.25;4889340;29;8903;-76
2022/01/20 02:37:09;;;;;;;;;39.50;32.50;;;;;2.44;49.09;99895.63;4874650;29;9730;-76
2022/01/20 02:45:14;;;;;;;;;41.00;34.50;;;;;2.75;48.34;99886.50;4907260;29;8901;-74
2022/01/20 02:47:43;;;;;;;;;20.25;20.00;;;;;2.88;48.08;99883.53;4908647;29;8929;-75
2022/01/20 02:50:12;;;;;;;;;35.50;28.00;;;;;2.84;48.28;99873.94;4893509;29;8909;-76
2022/01/20 02:52:42;;;;;;;;;47.25;41.25;;;;;2.99;48.20;99873.63;4880996;28;8887;-75
2022/01/20 02:55:14;;;;;;;;;35.25;32.50;;;;;3.03;47.58;99863.47;4966659;28;9727;-74
2022/01/20 02:57:42;;;;;;;;;43.50;40.25;;;;;3.10;47.38;99868.00;4967323;28;8860;-75
2022/01/20 03:00:12;;;;;;;;;42.50;37.00;;;;;3.06;47.41;99863.56;4988593;28;8871;-75
2022/01/20 03:02:42;;;;;;;;;42.25;36.00;;;;;3.18;47.60;99857.09;4982455;28;8858;-76
2022/01/20 03:05:11;;;;;;;;;39.25;33.25;;;;;3.26;47.33;99865.94;4978477;28;8855;-75
2022/01/20 03:07:45;;;;;;;;;40.25;37.25;;;;;3.31;47.07;99854.97;5010756;28;8842;-75
2022/01/20 03:10:16;;;;;;;;;48.50;44.25;;;;;3.39;46.71;99859.50;5034925;28;8976;-76
2022/01/20 03:12:45;;;;;;;;;47.75;41.75;;;;;3.43;46.84;99853.63;5049116;28;8840;-75
2022/01/20 03:15:14;;;;;;;;;40.25;37.00;;;;;3.44;46.61;99856.25;5049140;28;8867;-77
2022/01/20 03:17:43;;;;;;;;;39.50;36.50;;;;;3.47;46.23;99858.06;5082177;28;8864;-74
2022/01/20 03:20:13;;;;;;;;;44.25;38.00;;;;;3.48;46.68;99855.53;5027806;28;8894;-75
2022/01/20 03:22:41;;;;;;;;;41.50;38.75;;;;;3.52;46.36;99861.66;4996501;28;9011;-75
2022/01/20 03:25:12;;;;;;;;;33.50;31.75;;;;;3.56;46.12;99850.63;5048434;28;8843;-74
2022/01/20 03:27:43;;;;;;;;;37.00;37.00;;;;;3.51;46.34;99858.19;4989396;28;9595;-74
2022/01/20 03:30:13;;;;;;;;;37.50;35.25;;;;;3.48;45.90;99855.53;4973241;28;8868;-75
2022/01/20 03:32:41;;;;;;;;;30.75;29.50;;;;;3.56;45.61;99847.19;4989411;28;8987;-74
2022/01/20 03:35:11;;;;;;;;;44.75;35.25;;;;;3.59;45.47;99849.84;4950100;28;8877;-75
2022/01/20 03:37:42;;;;;;;;;32.75;29.25;;;;;3.57;44.94;99836.88;4950579;28;8858;-76
2022/01/20 03:40:13;;;;;;;;;29.50;28.75;;;;;3.54;44.93;99846.25;4934194;28;8854;-75
2022/01/20 03:42:41;;;;;;;;;32.75;28.00;;;;;3.55;45.30;99842.84;4934492;28;8870;-74
2022/01/20 03:45:10;;;;;;;;;34.75;29.00;;;;;3.55;45.21;99841.13;4934213;28;8858;-74
2022/01/20 03:47:42;;;;;;;;;31.50;29.00;;;;;3.51;44.92;99847.88;4934242;28;8854;-76
2022/01/20 03:50:59;;;;;;;;;32.25;29.00;;;;;3.49;45.10;99841.78;4934218;28;8937;-75
2022/01/20 03:52:59;;;;;;;;;32.25;31.00;;;;;3.32;45.61;99851.56;4972832;28;8846;-76
2022/01/20 03:55:29;;;;;;;;;33.50;29.50;;;;;3.38;45.40;99843.16;4972290;28;9723;-75
2022/01/20 03:58:07;;;;;;;;;30.00;29.25;;;;;3.29;44.89;99843.75;4979208;28;8941;-74
2022/01/20 04:00:41;;;;;;;;;28.75;26.25;;;;;3.39;44.85;99844.91;4995469;28;8850;-76
2022/01/20 04:03:28;;;;;;;;;29.50;26.75;;;;;3.44;44.92;99843.38;5010430;28;8828;-75
2022/01/20 04:06:15;;;;;;;;;27.25;23.75;;;;;3.49;44.71;99840.94;5012847;28;8832;-75
2022/01/20 04:08:48;;;;;;;;;23.00;21.50;;;;;3.58;44.56;99850.69;5069140;28;8839;-76
2022/01/20 04:11:22;;;;;;;;;28.00;26.50;;;;;3.61;44.15;99845.59;5052461;28;8851;-74
2022/01/20 04:13:52;;;;;;;;;29.75;24.75;;;;;3.62;44.08;99852.53;5034984;28;8844;-75
2022/01/20 04:16:38;;;;;;;;;27.25;22.75;;;;;3.56;43.70;99862.66;5068938;28;8844;-76
2022/01/20 04:19:09;;;;;;;;;24.50;20.00;;;;;3.63;43.99;99859.41;5068873;28;8876;-78
2022/01/20 04:21:39;;;;;;;;;24.25;21.75;;;;;3.68;43.65;99865.59;5052745;28;8840;-76
2022/01/20 04:24:10;;;;;;;;;23.50;19.50;;;;;3.67;43.70;99858.72;5068800;28;8844;-74
2022/01/20 04:26:43;;;;;;;;;21.50;21.50;;;;;3.66;42.98;99860.41;5068577;28;8844;-75
2022/01/20 04:29:16;;;;;;;;;21.75;20.75;;;;;3.71;43.49;99864.00;5034290;28;8849;-74
2022/01/20 04:31:46;;;;;;;;;25.50;20.25;;;;;3.76;43.09;99863.28;5050294;28;8880;-75
2022/01/20 04:34:15;;;;;;;;;18.50;17.50;;;;;3.76;42.80;99869.28;5029969;28;8871;-74
2022/01/20 04:36:47;;;;;;;;;20.20;18.00;;;;;3.83;42.79;99873.84;5014192;28;8847;-76
2022/01/20 04:39:19;;;;;;;;;21.25;19.25;;;;;3.92;43.29;99862.94;5030700;28;8859;-77
2022/01/20 04:41:51;;;;;;;;;32.50;27.00;;;;;3.98;43.53;99860.53;5014028;28;8835;-79
2022/01/20 04:44:32;;;;;;;;;22.75;19.75;;;;;4.02;42.40;99864.09;5013778;28;8844;-74
2022/01/20 04:47:12;;;;;;;;;28.00;24.75;;;;;4.05;43.00;99866.78;5047448;28;8871;-76
2022/01/20 04:58:03;;;;;;;;;26.25;22.50;;;;;4.08;42.51;99878.06;5016561;28;8844;-74
2022/01/20 05:00:32;;;;;;;;;34.75;29.25;;;;;4.04;41.93;99881.38;5013723;28;9636;-75
2022/01/20 05:03:20;;;;;;;;;24.50;22.25;;;;;3.94;42.12;99881.06;5046777;28;8970;-75
2022/01/20 05:05:51;;;;;;;;;25.25;23.00;;;;;4.04;42.37;99890.81;5035513;28;8878;-76
2022/01/20 05:08:30;;;;;;;;;29.00;26.50;;;;;4.07;42.66;99891.78;4991818;28;9661;-76
2022/01/20 05:11:02;;;;;;;;;26.75;26.50;;;;;4.07;41.81;99894.38;5008384;28;8978;-74
2022/01/20 05:13:40;;;;;;;;;29.00;26.25;;;;;4.10;42.33;99896.16;4976507;28;8844;-76
2022/01/20 05:16:12;;;;;;;;;31.25;28.50;;;;;4.12;41.98;99896.22;5024516;28;8863;-78
2022/01/20 05:18:46;;;;;;;;;22.75;21.00;;;;;4.15;42.32;99901.47;5002251;28;8852;-78
2022/01/20 05:21:14;;;;;;;;;24.50;24.00;;;;;4.17;42.79;99897.25;4991016;28;8890;-75
2022/01/20 05:23:43;;;;;;;;;24.75;22.00;;;;;4.19;42.86;99908.50;4974717;28;8895;-77
2022/01/20 05:26:14;;;;;;;;;25.50;25.25;;;;;4.17;42.68;99902.41;5007747;28;9577;-75
2022/01/20 05:28:46;;;;;;;;;28.50;24.50;;;;;4.20;42.53;99907.69;4991433;28;8883;-74
2022/01/20 05:31:15;;;;;;;;;46.75;42.75;;;;;4.21;43.33;99907.69;4977474;28;8864;-74
2022/01/20 05:33:49;;;;;;;;;45.75;41.75;;;;;4.21;42.95;99907.69;5043907;28;8972;-75
2022/01/20 05:36:22;;;;;;;;;49.75;44.00;;;;;4.20;43.79;99907.69;5027589;28;8863;-75
2022/01/20 05:38:52;;;;;;;;;36.50;35.25;;;;;4.17;43.15;99900.69;5011447;28;8856;-74
2022/01/20 05:41:21;;;;;;;;;58.75;51.75;;;;;4.15;43.55;99904.06;4993446;28;8946;-76
2022/01/20 05:43:56;;;;;;;;;38.50;35.75;;;;;4.09;44.17;99909.91;4992856;28;8849;-75
2022/01/20 05:46:28;;;;;;;;;45.75;41.25;;;;;4.02;43.76;99906.25;5026391;28;8875;-76
2022/01/20 05:49:10;;;;;;;;;63.50;53.00;;;;;3.97;43.89;99902.66;5011017;28;8865;-74
2022/01/20 05:51:52;;;;;;;;;64.50;49.50;;;;;3.93;44.00;99905.09;5010524;28;8880;-75
2022/01/20 05:54:22;;;;;;;;;54.75;44.25;;;;;3.90;43.87;99903.28;5005890;28;8851;-75
2022/01/20 05:56:51;;;;;;;;;37.50;36.25;;;;;3.86;44.12;99907.47;5005955;28;8860;-75
2022/01/20 05:59:21;;;;;;;;;34.50;32.50;;;;;3.85;44.03;99902.25;4958116;28;8944;-75
2022/01/20 06:01:55;;;;;;;;;34.75;33.50;;;;;3.81;43.70;99893.53;4973073;28;9034;-76
2022/01/20 06:04:27;;;;;;;;;34.75;30.00;;;;;3.81;43.59;99900.41;4989196;28;8867;-74
2022/01/20 06:06:59;;;;;;;;;34.50;32.50;;;;;3.80;42.89;99896.06;5009203;28;8956;-75
2022/01/20 06:09:27;;;;;;;;;34.50;29.25;;;;;3.76;42.59;99899.38;4930309;28;8889;-78
2022/01/20 06:11:56;;;;;;;;;34.50;28.50;;;;;3.75;42.53;99900.22;5009079;28;8880;-74
2022/01/20 06:14:28;;;;;;;;;43.75;41.50;;;;;3.74;43.17;99904.47;5009221;28;8829;-77
2022/01/20 06:16:57;;;;;;;;;35.00;32.50;;;;;3.73;42.75;99905.31;5025265;28;8845;-76
2022/01/20 06:19:26;;;;;;;;;34.50;32.00;;;;;3.77;42.76;99891.69;5008987;28;8853;-75
2022/01/20 06:21:55;;;;;;;;;30.00;28.25;;;;;3.76;42.77;99910.56;5008555;28;9674;-75
2022/01/20 06:24:24;;;;;;;;;31.25;28.75;;;;;3.70;42.41;99908.69;5009085;28;8849;-75
2022/01/20 06:26:53;;;;;;;;;33.00;28.00;;;;;3.78;42.99;99908.94;5008885;28;8857;-75
2022/01/20 06:29:25;;;;;;;;;32.50;31.50;;;;;3.82;42.96;99909.88;5011959;28;8874;-75
2022/01/20 06:31:55;;;;;;;;;36.00;34.50;;;;;3.86;42.99;99909.19;5028292;28;8877;-75
2022/01/20 06:34:26;;;;;;;;;38.50;36.75;;;;;3.89;42.54;99907.59;5044699;28;8847;-75
2022/01/20 06:36:55;;;;;;;;;37.50;35.25;;;;;3.94;43.00;99905.13;5011946;28;8824;-75
2022/01/20 06:39:25;;;;;;;;;46.50;41.00;;;;;3.99;42.63;99902.69;5029571;28;8869;-74
2022/01/20 06:41:55;;;;;;;;;40.00;36.75;;;;;4.01;41.99;99908.81;5046274;28;8847;-74
2022/01/20 06:44:23;;;;;;;;;43.50;33.50;;;;;4.00;41.90;99904.47;5045709;28;8862;-75
2022/01/20 06:46:52;;;;;;;;;30.75;30.00;;;;;4.09;41.50;99904.75;5049083;28;8863;-76
2022/01/20 06:49:35;;;;;;;;;30.75;26.00;;;;;4.18;41.55;99907.63;5049893;28;8872;-76
2022/01/20 06:52:08;;;;;;;;;25.00;25.00;;;;;4.28;41.64;99909.63;5044542;28;8877;-74
2022/01/20 06:54:38;;;;;;;;;33.25;31.25;;;;;4.34;40.70;99906.38;5028204;28;8834;-75
2022/01/20 06:57:19;;;;;;;;;37.75;33.75;;;;;4.36;40.57;99898.69;4996358;28;8850;-75
2022/01/20 06:59:48;;;;;;;;;42.50;36.50;;;;;4.48;40.62;99899.94;5032109;28;8869;-75
2022/01/20 07:02:17;;;;;;;;;26.00;22.25;;;;;4.52;40.27;99910.31;5031112;28;9000;-75
2022/01/20 07:04:47;;;;;;;;;38.25;33.00;;;;;4.64;40.31;99903.81;5015676;28;8862;-75
2022/01/20 07:07:21;;;;;;;;;38.25;32.25;;;;;4.71;40.02;99894.56;5030846;28;8872;-75
2022/01/20 07:10:18;;;;;;;;;37.50;34.75;;;;;4.85;39.96;99879.44;4988937;28;8881;-76
2022/01/20 07:12:57;;;;;;;;;46.50;37.75;;;;;4.98;39.55;99878.06;4973035;28;8947;-77
2022/01/20 07:15:28;;;;;;;;;37.50;35.00;;;;;5.04;39.49;99880.81;4956930;28;8880;-75
2022/01/20 07:17:58;;;;;;;;;43.50;39.75;;;;;5.16;39.47;99876.00;4972797;28;8887;-75
2022/01/20 07:20:31;;;;;;;;;41.50;35.75;;;;;5.32;39.35;99876.38;4972573;28;9008;-76
2022/01/20 07:23:14;;;;;;;;;44.00;40.25;;;;;5.49;38.15;99884.56;4963334;28;8960;-76
2022/01/20 07:26:04;;;;;;;;;51.25;44.00;;;;;5.65;38.39;99882.41;4955684;28;8853;-73
2022/01/20 07:28:35;;;;;;;;;47.00;41.50;;;;;5.87;38.36;99877.75;5025648;28;8841;-70
2022/01/20 07:31:04;;;;;;;;;46.25;42.75;;;;;6.03;38.22;99879.91;5011129;28;8962;-71
2022/01/20 07:33:32;;;;;;;;;44.75;40.50;;;;;6.21;37.92;99889.78;5011561;28;8862;-73
2022/01/20 07:36:03;;;;;;;;;52.50;44.00;;;;;6.34;37.54;99884.88;5011264;28;8854;-73
2022/01/20 07:38:32;;;;;;;;;36.50;35.75;;;;;6.47;37.64;99886.03;5011212;28;9015;-73
2022/01/20 07:41:01;;;;;;;;;47.25;38.25;;;;;6.58;37.11;99875.06;4988385;28;8879;-76
2022/01/20 07:43:30;;;;;;;;;38.25;36.75;;;;;6.67;36.55;99863.97;4988516;28;9604;-74
2022/01/20 07:46:01;;;;;;;;;40.25;38.00;;;;;6.79;36.30;99866.84;4971475;28;8937;-75
2022/01/20 07:48:40;;;;;;;;;41.00;38.25;;;;;6.82;36.43;99863.41;5011362;28;8956;-74
2022/01/20 07:51:16;;;;;;;;;37.00;35.75;;;;;6.95;36.70;99867.13;4979639;28;8961;-75
2022/01/20 07:53:46;;;;;;;;;45.50;38.25;;;;;6.98;36.11;99865.47;4968212;28;8871;-74
2022/01/20 07:56:16;;;;;;;;;48.25;40.75;;;;;6.95;35.83;99864.53;4936694;28;8886;-75
2022/01/20 07:58:46;;;;;;;;;47.75;40.75;;;;;7.03;35.81;99865.53;4950696;28;9640;-73
2022/01/20 08:01:15;;;;;;;;;45.75;40.50;;;;;7.08;36.14;99865.66;4951825;28;8992;-74
2022/01/20 08:03:58;;;;;;;;;46.50;41.25;;;;;7.13;35.90;99870.06;4951779;28;8928;-73
2022/01/20 08:06:31;;;;;;;;;39.00;37.00;;;;;7.05;35.47;99866.47;4951676;28;8989;-74
2022/01/20 08:09:09;;;;;;;;;34.75;29.25;;;;;7.05;35.98;99863.00;4950678;28;8854;-73
2022/01/20 08:11:46;;;;;;;;;34.50;31.00;;;;;7.10;35.92;99864.81;4970309;28;8862;-74
2022/01/20 08:14:35;;;;;;;;;36.00;32.75;;;;;7.19;36.11;99858.94;5009921;28;8923;-73
2022/01/20 08:17:07;;;;;;;;;38.75;34.00;;;;;7.19;35.60;99866.72;4993274;28;8846;-73
2022/01/20 08:19:39;;;;;;;;;40.75;39.00;;;;;7.33;35.81;99861.78;5010604;28;8858;-73
2022/01/20 08:22:10;;;;;;;;;40.50;37.50;;;;;7.41;36.09;99861.06;4993945;28;8969;-74
2022/01/20 08:25:01;;;;;;;;;47.00;42.75;;;;;7.45;35.97;99863.69;5038008;28;8848;-72
2022/01/20 08:27:30;;;;;;;;;47.00;39.75;;;;;7.21;35.51;99870.22;5062945;28;8856;-74
2022/01/20 08:30:00;;;;;;;;;50.50;42.50;;;;;7.37;35.84;99864.47;5083820;28;8846;-74
2022/01/20 08:32:31;;;;;;;;;35.00;34.00;;;;;7.45;36.13;99866.28;5067731;28;8863;-71
2022/01/20 08:35:20;;;;;;;;;42.00;38.00;;;;;7.51;34.92;99856.91;5050905;28;8885;-73
2022/01/20 08:37:55;;;;;;;;;28.00;27.50;;;;;7.46;34.69;99850.75;5050829;28;8860;-75
2022/01/20 08:40:26;;;;;;;;;49.75;42.00;;;;;7.58;35.05;99844.88;5084757;28;8865;-72
2022/01/20 08:42:56;;;;;;;;;38.50;36.25;;;;;7.65;35.47;99846.75;5067707;28;8874;-75
2022/01/20 08:45:29;;;;;;;;;41.25;38.00;;;;;7.74;35.50;99841.69;5051264;28;8993;-72
2022/01/20 08:48:00;;;;;;;;;46.00;39.50;;;;;7.80;34.78;99840.91;5017851;28;8848;-75
2022/01/20 08:50:51;;;;;;;;;45.75;40.00;;;;;7.81;34.58;99833.16;5045257;28;9113;-74
2022/01/20 08:53:21;;;;;;;;;45.00;39.00;;;;;7.85;34.21;99813.31;5028048;28;8918;-76
2022/01/20 08:55:51;;;;;;;;;48.50;44.00;;;;;7.85;33.95;99818.50;5029750;28;8902;-73
2022/01/20 08:58:21;;;;;;;;;60.50;50.50;;;;;7.88;34.16;99815.06;5010227;28;8973;-75
2022/01/20 09:00:50;;;;;;;;;59.25;47.75;;;;;7.86;34.41;99814.19;5031453;28;8840;-73
2022/01/20 09:03:22;;;;;;;;;56.50;44.75;;;;;7.83;34.56;99816.75;5013666;28;8914;-74
2022/01/20 09:05:51;;;;;;;;;50.00;43.50;;;;;7.93;34.38;99810.81;5030435;28;8873;-72
2022/01/20 09:08:31;;;;;;;;;44.00;40.25;;;;;7.98;34.58;99807.44;5013335;28;8851;-74
2022/01/20 09:11:17;;;;;;;;;42.50;35.50;;;;;8.08;34.58;99802.38;5018950;28;8828;-72
2022/01/20 09:16:35;;;;;;;;;45.50;41.50;;;;;8.17;33.99;99795.59;5014597;28;8859;-73
2022/01/20 09:19:16;;;;;;;;;44.50;39.50;;;;;8.16;34.31;99791.22;5012004;28;8836;-72
2022/01/20 09:21:56;;;;;;;;;44.25;39.25;;;;;8.30;34.92;99796.63;5026315;28;8908;-75
2022/01/20 09:24:27;;;;;;;;;44.00;37.25;;;;;8.43;34.39;99789.00;5011493;28;9045;-73
2022/01/20 09:26:58;;;;;;;;;45.25;40.50;;;;;8.37;33.78;99788.06;5012998;28;8894;-74
2022/01/20 09:29:27;;;;;;;;;50.00;42.75;;;;;8.51;33.83;99783.03;5066610;28;8871;-75
2022/01/20 09:31:56;;;;;;;;;41.75;36.00;;;;;8.54;33.89;99782.19;5050118;28;8868;-74
2022/01/20 09:34:29;;;;;;;;;36.25;32.75;;;;;8.54;33.78;99782.19;5026934;28;8839;-72
2022/01/20 09:36:59;;;;;;;;;35.75;33.00;;;;;8.67;32.82;99778.00;5032703;28;8863;-75
2022/01/20 09:39:31;;;;;;;;;40.25;37.50;;;;;8.72;32.87;99773.75;5032477;28;8882;-74
2022/01/20 09:42:07;;;;;;;;;41.25;37.25;;;;;8.84;33.56;99767.78;5065410;28;8859;-73
2022/01/20 09:44:37;;;;;;;;;37.50;34.25;;;;;8.84;32.89;99754.78;5049858;28;8860;-72
2022/01/20 09:47:06;;;;;;;;;34.50;33.25;;;;;8.93;34.09;99750.53;5077908;28;8858;-72
2022/01/20 09:49:47;;;;;;;;;45.00;36.75;;;;;9.03;32.90;99751.50;5067768;28;8864;-74
2022/01/20 09:52:27;;;;;;;;;39.25;33.50;;;;;9.13;32.58;99742.03;5049108;28;8994;-74
2022/01/20 09:55:20;;;;;;;;;36.75;33.50;;;;;9.13;32.39;99737.72;5024052;28;8832;-74
2022/01/20 09:57:49;;;;;;;;;37.00;34.25;;;;;8.94;32.51;99741.91;5008816;28;8848;-72
2022/01/20 10:00:19;;;;;;;;;35.25;30.50;;;;;8.74;32.73;99735.63;5007405;28;8880;-74
2022/01/20 10:02:57;;;;;;;;;30.75;28.75;;;;;8.72;32.04;99722.59;5009513;28;8883;-74
2022/01/20 10:05:28;;;;;;;;;33.75;26.50;;;;;8.54;32.70;99723.31;4992558;28;9000;-74
2022/01/20 10:08:04;;;;;;;;;32.75;32.00;;;;;8.46;32.82;99711.06;4992730;28;8945;-72
2022/01/20 10:10:48;;;;;;;;;28.80;28.80;;;;;8.63;33.41;99706.06;4985082;28;8877;-74
2022/01/20 10:13:26;;;;;;;;;32.75;28.75;;;;;8.67;33.01;99697.41;4953178;28;8858;-71
2022/01/20 10:16:21;;;;;;;;;22.80;19.40;;;;;8.68;33.47;99700.03;4985224;28;8866;-73
2022/01/20 10:19:00;;;;;;;;;32.75;29.50;;;;;8.66;34.13;99686.16;4969407;28;8838;-74
2022/01/20 10:21:39;;;;;;;;;24.50;23.75;;;;;8.88;33.13;99670.75;4969818;28;8897;-73
2022/01/20 10:24:28;;;;;;;;;30.50;29.25;;;;;8.98;33.52;99663.03;4985281;28;8838;-73
2022/01/20 10:27:09;;;;;;;;;31.25;26.25;;;;;9.17;34.37;99655.38;4954987;28;8984;-75
2022/01/20 10:29:40;;;;;;;;;34.00;31.50;;;;;9.30;34.33;99654.59;4969685;28;8888;-74
2022/01/20 10:32:22;;;;;;;;;32.00;30.75;;;;;9.19;34.32;99651.03;4992588;28;8887;-72
2022/01/20 10:35:06;;;;;;;;;38.00;32.75;;;;;9.49;34.44;99646.88;5004841;28;9837;-72
2022/01/20 10:37:38;;;;;;;;;33.75;31.00;;;;;9.60;33.88;99639.13;4987543;28;8955;-73
2022/01/20 10:40:16;;;;;;;;;37.50;33.25;;;;;9.77;33.91;99629.63;5003162;28;8860;-73
2022/01/20 10:42:54;;;;;;;;;26.00;22.50;;;;;9.96;34.28;99620.16;4972113;28;8973;-74
2022/01/20 10:45:26;;;;;;;;;33.75;30.25;;;;;9.98;33.86;99613.25;5002669;28;8941;-72
2022/01/20 10:47:58;;;;;;;;;43.25;37.50;;;;;10.00;33.44;99613.22;4982798;28;8882;-74
2022/01/20 10:50:34;;;;;;;;;38.50;36.25;;;;;10.02;34.33;99619.31;4993333;28;8894;-73
2022/01/20 10:53:05;;;;;;;;;42.75;38.50;;;;;9.94;34.06;99607.16;5025240;28;8908;-70
2022/01/20 10:55:37;;;;;;;;;40.50;33.00;;;;;9.89;34.46;99601.06;4951242;28;8858;-73
2022/01/20 10:58:16;;;;;;;;;38.75;36.25;;;;;9.90;34.34;99605.38;4963417;28;8852;-74
2022/01/20 11:00:47;;;;;;;;;42.50;38.00;;;;;10.04;35.12;99601.97;4946502;28;8852;-77
2022/01/20 11:03:19;;;;;;;;;37.75;35.75;;;;;10.05;35.08;99594.13;4954062;28;9584;-71
2022/01/20 11:05:51;;;;;;;;;37.75;36.75;;;;;10.17;34.92;99595.91;4967106;28;8850;-72
2022/01/20 11:08:44;;;;;;;;;38.50;36.25;;;;;10.29;35.00;99580.28;4928432;29;8981;-71
2022/01/20 11:11:18;;;;;;;;;35.75;32.00;;;;;10.38;34.80;99579.47;4928903;29;8862;-73
2022/01/20 11:13:49;;;;;;;;;37.75;36.00;;;;;10.52;34.17;99577.72;4944824;29;8858;-71
2022/01/20 11:16:22;;;;;;;;;47.00;40.50;;;;;10.49;34.88;99574.25;4944011;29;8961;-71
2022/01/20 11:18:55;;;;;;;;;55.50;44.00;;;;;10.54;34.65;99562.94;4943734;29;9608;-75
2022/01/20 11:21:25;;;;;;;;;52.25;42.25;;;;;10.57;34.69;99556.88;4944172;29;9166;-73
2022/01/20 11:23:55;;;;;;;;;47.00;41.75;;;;;10.63;34.59;99558.63;4944736;29;8870;-73
2022/01/20 11:26:29;;;;;;;;;53.25;42.00;;;;;10.63;35.15;99548.19;4942401;29;8859;-73
2022/01/20 11:29:01;;;;;;;;;55.25;42.00;;;;;10.72;34.89;99540.34;4946482;28;8850;-73
2022/01/20 11:31:49;;;;;;;;;54.50;44.00;;;;;10.53;34.49;99529.94;4919418;29;8920;-75
2022/01/20 11:34:54;;;;;;;;;49.50;42.00;;;;;10.54;35.34;99544.69;4965697;28;8844;-72
2022/01/20 11:37:24;;;;;;;;;50.50;41.50;;;;;10.63;35.53;99538.63;4981508;28;8851;-73
2022/01/20 11:39:54;;;;;;;;;44.50;40.25;;;;;10.75;35.64;99529.03;4992323;28;8853;-73
2022/01/20 11:42:27;;;;;;;;;50.50;40.75;;;;;10.89;34.73;99529.91;5023700;28;8892;-73
2022/01/20 11:44:57;;;;;;;;;50.25;42.25;;;;;10.99;35.09;99525.50;5011843;28;8887;-73
2022/01/20 11:47:32;;;;;;;;;49.25;43.50;;;;;11.07;34.31;99527.22;5068107;28;8888;-75
2022/01/20 11:50:01;;;;;;;;;52.25;43.25;;;;;11.10;34.99;99522.00;5068966;28;9635;-72
2022/01/20 11:52:32;;;;;;;;;48.25;41.75;;;;;11.19;34.73;99526.34;5070096;28;8874;-72
2022/01/20 11:55:21;;;;;;;;;51.25;42.50;;;;;11.29;34.83;99517.56;5069375;28;8851;-74
2022/01/20 11:57:50;;;;;;;;;55.75;47.75;;;;;11.40;34.66;99512.31;5065560;28;8896;-74
2022/01/20 12:00:28;;;;;;;;;57.00;46.50;;;;;11.41;34.51;99511.44;5056816;28;8848;-75
2022/01/20 12:02:57;;;;;;;;;63.00;51.50;;;;;11.39;34.53;99502.75;5068211;28;9806;-73
2022/01/20 12:05:37;;;;;;;;;56.00;45.50;;;;;11.38;34.31;99508.84;5051978;28;8844;-74
2022/01/20 12:08:25;;;;;;;;;66.50;54.00;;;;;11.44;34.37;99503.59;5068796;28;8868;-74
2022/01/20 12:11:02;;;;;;;;;74.67;61.00;;;;;11.51;34.50;99496.56;5069847;28;9010;-71
2022/01/20 12:13:31;;;;;;;;;66.25;52.75;;;;;11.44;34.05;99493.16;5085441;28;8965;-74
2022/01/20 12:16:03;;;;;;;;;66.00;52.25;;;;;11.43;35.06;99488.78;5085429;28;8851;-73
2022/01/20 12:18:33;;;;;;;;;58.50;48.00;;;;;11.43;34.76;99490.53;5068344;28;8905;-73
2022/01/20 12:21:04;;;;;;;;;61.25;48.75;;;;;11.46;34.81;99490.53;5052052;28;8863;-75
2022/01/20 12:23:44;;;;;;;;;60.25;48.50;;;;;11.54;35.07;99493.09;5068323;28;8867;-73
2022/01/20 12:26:13;;;;;;;;;61.75;49.75;;;;;11.49;35.06;99494.00;5066536;28;9008;-73
2022/01/20 12:28:42;;;;;;;;;60.50;50.00;;;;;11.38;35.13;99487.97;5069430;28;8836;-72
2022/01/20 12:31:13;;;;;;;;;58.50;46.00;;;;;11.40;35.18;99488.81;5051776;28;8867;-73
2022/01/20 12:33:48;;;;;;;;;60.25;47.25;;;;;11.41;34.74;99487.94;5050726;28;8884;-73
2022/01/20 12:36:18;;;;;;;;;63.75;51.25;;;;;11.40;34.90;99486.22;5067988;28;8856;-72
2022/01/20 12:38:49;;;;;;;;;59.25;46.50;;;;;11.28;35.22;99476.66;5066979;28;8847;-74
2022/01/20 12:41:22;;;;;;;;;59.75;47.75;;;;;11.30;35.66;99471.44;5067300;28;8836;-75
2022/01/20 12:43:53;;;;;;;;;58.00;45.75;;;;;11.36;35.84;99468.84;5067390;28;8955;-74
2022/01/20 12:46:26;;;;;;;;;55.25;45.00;;;;;11.36;35.84;99458.38;5067729;28;9014;-73
2022/01/20 12:48:58;;;;;;;;;51.75;43.25;;;;;11.36;35.68;99465.31;5067473;28;8848;-72
2022/01/20 12:51:36;;;;;;;;;54.00;43.50;;;;;11.30;35.67;99459.28;5063438;28;8858;-74
2022/01/20 12:54:11;;;;;;;;;42.75;38.25;;;;;10.82;36.56;99465.56;5054965;28;8862;-72
2022/01/20 12:56:43;;;;;;;;;49.25;41.25;;;;;10.75;36.62;99466.44;5064662;28;9644;-73
2022/01/20 12:59:13;;;;;;;;;44.00;39.25;;;;;10.67;37.53;99466.47;5067278;28;8863;-73
2022/01/20 13:02:05;;;;;;;;;47.00;40.00;;;;;10.65;37.69;99466.47;5084011;28;8832;-74